RYR3UF LFRS-LEVC
Flight info
| Callsign | RYR3UF |
|---|---|
| Flight time | 1h 25m |
| Altitude | 33000 |
| Route | LUGEN UM616 TUPAR DCT CNA DCT SECHE DCT AGN DCT ANETO DCT POSSY DCT ROCME DCT SEROX N860 SAURA |
| Aircraft | A320/M-SDE3FGHIRWY/LB1 |
Departure
| Time | 2026-05-07 19:34 |
|---|---|
| Airport | Nantes Atlantique Airport (LFRS) |
Arrival
| Time | 2026-05-07 20:59 |
|---|---|
| Airport | Valencia Airport (LEVC) |
| Time | Latitude | Longitude | Altitude | Speed | Heading |
|---|---|---|---|---|---|
| 2026-05-07 18:59 | 47.15494 | -1.60107 | 102 ft | 0 kts | 207° |
| 2026-05-07 19:24 | 47.15495 | -1.60106 | 102 ft | 2 kts | 207° |
| 2026-05-07 19:24 | 47.15518 | -1.60092 | 102 ft | 4 kts | 198° |
| 2026-05-07 19:25 | 47.15541 | -1.60079 | 102 ft | 4 kts | 237° |
| 2026-05-07 19:25 | 47.15550 | -1.60101 | 101 ft | 2 kts | 297° |
| 2026-05-07 19:25 | 47.15550 | -1.60099 | 102 ft | 0 kts | 295° |
| 2026-05-07 19:28 | 47.15553 | -1.60109 | 102 ft | 2 kts | 295° |
| 2026-05-07 19:28 | 47.15567 | -1.60148 | 102 ft | 7 kts | 300° |
| 2026-05-07 19:29 | 47.15585 | -1.60202 | 102 ft | 10 kts | 287° |
| 2026-05-07 19:29 | 47.15545 | -1.60295 | 101 ft | 12 kts | 213° |
| 2026-05-07 19:29 | 47.15528 | -1.60413 | 101 ft | 14 kts | 289° |
| 2026-05-07 19:29 | 47.15584 | -1.60539 | 102 ft | 15 kts | 299° |
| 2026-05-07 19:30 | 47.15531 | -1.60644 | 103 ft | 15 kts | 206° |
| 2026-05-07 19:30 | 47.15420 | -1.60728 | 102 ft | 20 kts | 208° |
| 2026-05-07 19:30 | 47.15286 | -1.60830 | 102 ft | 24 kts | 207° |
| 2026-05-07 19:30 | 47.15126 | -1.60952 | 100 ft | 27 kts | 207° |
| 2026-05-07 19:31 | 47.14960 | -1.61078 | 98 ft | 25 kts | 207° |
| 2026-05-07 19:31 | 47.14821 | -1.61184 | 98 ft | 21 kts | 207° |
| 2026-05-07 19:31 | 47.14683 | -1.61287 | 99 ft | 23 kts | 207° |
| 2026-05-07 19:31 | 47.14530 | -1.61405 | 94 ft | 26 kts | 207° |
| 2026-05-07 19:32 | 47.14361 | -1.61534 | 93 ft | 29 kts | 207° |
| 2026-05-07 19:32 | 47.14213 | -1.61647 | 89 ft | 15 kts | 207° |
| 2026-05-07 19:32 | 47.14153 | -1.61757 | 91 ft | 15 kts | 251° |
| 2026-05-07 19:32 | 47.14151 | -1.61901 | 90 ft | 8 kts | 296° |
| 2026-05-07 19:33 | 47.14194 | -1.61925 | 91 ft | 9 kts | 28° |
| 2026-05-07 19:33 | 47.14271 | -1.61868 | 90 ft | 22 kts | 26° |
| 2026-05-07 19:33 | 47.14622 | -1.61602 | 100 ft | 89 kts | 27° |
| 2026-05-07 19:33 | 47.15340 | -1.61057 | 100 ft | 141 kts | 27° |
| 2026-05-07 19:34 | 47.16304 | -1.60311 | 372 ft | 158 kts | 27° |
| 2026-05-07 19:34 | 47.17188 | -1.59383 | 934 ft | 161 kts | 57° |
| 2026-05-07 19:34 | 47.17439 | -1.57807 | 1378 ft | 167 kts | 99° |
| 2026-05-07 19:34 | 47.16871 | -1.56239 | 1634 ft | 189 kts | 141° |
| 2026-05-07 19:35 | 47.15634 | -1.55297 | 1890 ft | 214 kts | 155° |
| 2026-05-07 19:35 | 47.14208 | -1.54330 | 2272 ft | 238 kts | 153° |
| 2026-05-07 19:35 | 47.12660 | -1.53228 | 2904 ft | 252 kts | 153° |
| 2026-05-07 19:35 | 47.11075 | -1.52086 | 3853 ft | 255 kts | 153° |
| 2026-05-07 19:36 | 47.09476 | -1.50935 | 4800 ft | 257 kts | 153° |
| 2026-05-07 19:36 | 47.07855 | -1.49773 | 5676 ft | 261 kts | 153° |
| 2026-05-07 19:36 | 47.06316 | -1.48328 | 6505 ft | 266 kts | 139° |
| 2026-05-07 19:36 | 47.04923 | -1.46508 | 7309 ft | 270 kts | 139° |
| 2026-05-07 19:37 | 47.03514 | -1.44647 | 8112 ft | 275 kts | 139° |
| 2026-05-07 19:37 | 47.02079 | -1.42758 | 8895 ft | 280 kts | 139° |
| 2026-05-07 19:37 | 47.00617 | -1.40845 | 9669 ft | 284 kts | 140° |
| 2026-05-07 19:37 | 46.99125 | -1.38896 | 10311 ft | 294 kts | 140° |
| 2026-05-07 19:38 | 46.97536 | -1.36827 | 10517 ft | 317 kts | 140° |
| 2026-05-07 19:38 | 46.95849 | -1.34634 | 10935 ft | 330 kts | 140° |
| 2026-05-07 19:38 | 46.94119 | -1.32386 | 11567 ft | 335 kts | 140° |
| 2026-05-07 19:38 | 46.92367 | -1.30111 | 12249 ft | 338 kts | 140° |
| 2026-05-07 19:39 | 46.90601 | -1.27817 | 12947 ft | 341 kts | 141° |
| 2026-05-07 19:39 | 46.88814 | -1.25496 | 13673 ft | 345 kts | 141° |
| 2026-05-07 19:39 | 46.87011 | -1.23159 | 14313 ft | 348 kts | 141° |
| 2026-05-07 19:39 | 46.85192 | -1.20801 | 14914 ft | 351 kts | 140° |
| 2026-05-07 19:40 | 46.83363 | -1.18425 | 15521 ft | 354 kts | 140° |
| 2026-05-07 19:40 | 46.81515 | -1.16027 | 16087 ft | 357 kts | 140° |
| 2026-05-07 19:40 | 46.79650 | -1.13606 | 16680 ft | 360 kts | 140° |
| 2026-05-07 19:40 | 46.77764 | -1.11168 | 17278 ft | 364 kts | 141° |
| 2026-05-07 19:41 | 46.75862 | -1.08712 | 17871 ft | 367 kts | 141° |
| 2026-05-07 19:41 | 46.73941 | -1.06230 | 18439 ft | 370 kts | 140° |
| 2026-05-07 19:41 | 46.72006 | -1.03725 | 18967 ft | 373 kts | 140° |
| 2026-05-07 19:41 | 46.70058 | -1.01202 | 19524 ft | 376 kts | 141° |
| 2026-05-07 19:42 | 46.68069 | -0.98631 | 20090 ft | 379 kts | 141° |
| 2026-05-07 19:42 | 46.66083 | -0.96075 | 20636 ft | 382 kts | 141° |
| 2026-05-07 19:42 | 46.64087 | -0.93511 | 21184 ft | 385 kts | 141° |
| 2026-05-07 19:42 | 46.62073 | -0.90925 | 21714 ft | 387 kts | 141° |
| 2026-05-07 19:43 | 46.60044 | -0.88322 | 22230 ft | 390 kts | 141° |
| 2026-05-07 19:43 | 46.58001 | -0.85701 | 22754 ft | 394 kts | 141° |
| 2026-05-07 19:43 | 46.55941 | -0.83051 | 23272 ft | 396 kts | 141° |
| 2026-05-07 19:43 | 46.53872 | -0.80381 | 23737 ft | 399 kts | 141° |
| 2026-05-07 19:44 | 46.51791 | -0.77688 | 24163 ft | 402 kts | 141° |
| 2026-05-07 19:44 | 46.49700 | -0.74983 | 24580 ft | 404 kts | 141° |
| 2026-05-07 19:44 | 46.47592 | -0.72268 | 24985 ft | 406 kts | 141° |
| 2026-05-07 19:44 | 46.45469 | -0.69547 | 25388 ft | 408 kts | 142° |
| 2026-05-07 19:45 | 46.43186 | -0.67114 | 25783 ft | 407 kts | 152° |
| 2026-05-07 19:45 | 46.40664 | -0.65280 | 26178 ft | 405 kts | 162° |
| 2026-05-07 19:45 | 46.37990 | -0.63987 | 26573 ft | 406 kts | 166° |
| 2026-05-07 19:45 | 46.35289 | -0.62756 | 26951 ft | 408 kts | 166° |
| 2026-05-07 19:46 | 46.32573 | -0.61513 | 27334 ft | 410 kts | 166° |
| 2026-05-07 19:46 | 46.29845 | -0.60258 | 27713 ft | 412 kts | 166° |
| 2026-05-07 19:46 | 46.27106 | -0.58997 | 28098 ft | 414 kts | 166° |
| 2026-05-07 19:46 | 46.24353 | -0.57728 | 28461 ft | 416 kts | 166° |
| 2026-05-07 19:47 | 46.21589 | -0.56454 | 28822 ft | 418 kts | 166° |
| 2026-05-07 19:47 | 46.18809 | -0.55171 | 29173 ft | 420 kts | 166° |
| 2026-05-07 19:47 | 46.16017 | -0.53885 | 29512 ft | 422 kts | 166° |
| 2026-05-07 19:47 | 46.13207 | -0.52595 | 29852 ft | 424 kts | 166° |
| 2026-05-07 19:48 | 46.10386 | -0.51308 | 30169 ft | 427 kts | 166° |
| 2026-05-07 19:48 | 46.07549 | -0.50020 | 30458 ft | 428 kts | 166° |
| 2026-05-07 19:48 | 46.04701 | -0.48726 | 30777 ft | 430 kts | 166° |
| 2026-05-07 19:48 | 46.01856 | -0.47429 | 31203 ft | 428 kts | 166° |
| 2026-05-07 19:49 | 45.99026 | -0.46136 | 31638 ft | 426 kts | 166° |
| 2026-05-07 19:49 | 45.96201 | -0.44848 | 32060 ft | 425 kts | 166° |
| 2026-05-07 19:49 | 45.93387 | -0.43567 | 32487 ft | 424 kts | 166° |
| 2026-05-07 19:49 | 45.90578 | -0.42289 | 32876 ft | 424 kts | 165° |
| 2026-05-07 19:50 | 45.85007 | -0.39752 | 32980 ft | 416 kts | 165° |
| 2026-05-07 19:50 | 45.79507 | -0.37258 | 32980 ft | 414 kts | 166° |
| 2026-05-07 19:51 | 45.74016 | -0.34787 | 32980 ft | 413 kts | 166° |
| 2026-05-07 19:51 | 45.68527 | -0.32317 | 32946 ft | 414 kts | 166° |
| 2026-05-07 19:52 | 45.63177 | -0.29247 | 32949 ft | 417 kts | 157° |
| 2026-05-07 19:52 | 45.57954 | -0.25633 | 32953 ft | 417 kts | 158° |
| 2026-05-07 19:53 | 45.52724 | -0.22021 | 32953 ft | 418 kts | 157° |
| 2026-05-07 19:53 | 45.47491 | -0.18415 | 32962 ft | 418 kts | 157° |
| 2026-05-07 19:54 | 45.42252 | -0.14810 | 32973 ft | 418 kts | 157° |
| 2026-05-07 19:54 | 45.37010 | -0.11203 | 32967 ft | 419 kts | 157° |
| 2026-05-07 19:55 | 45.31763 | -0.07610 | 32975 ft | 419 kts | 157° |
| 2026-05-07 19:55 | 45.26510 | -0.04024 | 32974 ft | 419 kts | 157° |
| 2026-05-07 19:56 | 45.21252 | -0.00434 | 32973 ft | 419 kts | 157° |
| 2026-05-07 19:56 | 45.15994 | 0.03151 | 32963 ft | 419 kts | 158° |
| 2026-05-07 19:57 | 45.10727 | 0.06726 | 32968 ft | 420 kts | 157° |
| 2026-05-07 19:57 | 45.05457 | 0.10301 | 32970 ft | 420 kts | 157° |
| 2026-05-07 19:58 | 45.00187 | 0.13871 | 32971 ft | 420 kts | 157° |
| 2026-05-07 19:58 | 44.94918 | 0.17429 | 32954 ft | 420 kts | 157° |
| 2026-05-07 19:59 | 44.89643 | 0.20979 | 32953 ft | 420 kts | 157° |
| 2026-05-07 19:59 | 44.84371 | 0.24524 | 32954 ft | 420 kts | 158° |
| 2026-05-07 20:00 | 44.79095 | 0.28060 | 32954 ft | 420 kts | 158° |
| 2026-05-07 20:00 | 44.73813 | 0.31593 | 32955 ft | 420 kts | 158° |
| 2026-05-07 20:01 | 44.68536 | 0.35124 | 32960 ft | 420 kts | 158° |
| 2026-05-07 20:01 | 44.63254 | 0.38651 | 32951 ft | 420 kts | 158° |
| 2026-05-07 20:02 | 44.57975 | 0.42157 | 32960 ft | 420 kts | 158° |
| 2026-05-07 20:02 | 44.52702 | 0.45662 | 32966 ft | 419 kts | 158° |
| 2026-05-07 20:03 | 44.47434 | 0.49155 | 32978 ft | 419 kts | 158° |
| 2026-05-07 20:03 | 44.42159 | 0.52640 | 32974 ft | 418 kts | 158° |
| 2026-05-07 20:04 | 44.36885 | 0.56099 | 32969 ft | 419 kts | 158° |
| 2026-05-07 20:04 | 44.31600 | 0.59552 | 32978 ft | 420 kts | 158° |
| 2026-05-07 20:05 | 44.26313 | 0.62997 | 32953 ft | 419 kts | 158° |
| 2026-05-07 20:05 | 44.21026 | 0.66435 | 32956 ft | 420 kts | 158° |
| 2026-05-07 20:06 | 44.16586 | 0.69322 | 32951 ft | 420 kts | 158° |
| 2026-05-07 20:06 | 44.11289 | 0.72765 | 32954 ft | 420 kts | 158° |
| 2026-05-07 20:07 | 44.05988 | 0.76206 | 32975 ft | 421 kts | 158° |
| 2026-05-07 20:07 | 44.00684 | 0.79637 | 32977 ft | 420 kts | 158° |
| 2026-05-07 20:08 | 43.95399 | 0.83047 | 32988 ft | 418 kts | 158° |
| 2026-05-07 20:08 | 43.89989 | 0.85846 | 32986 ft | 412 kts | 172° |
| 2026-05-07 20:09 | 43.84346 | 0.86069 | 32982 ft | 404 kts | 191° |
| 2026-05-07 20:10 | 43.76092 | 0.83874 | 32984 ft | 402 kts | 193° |
| 2026-05-07 20:10 | 43.70607 | 0.82408 | 32982 ft | 401 kts | 193° |
| 2026-05-07 20:11 | 43.65122 | 0.80949 | 32982 ft | 401 kts | 193° |
| 2026-05-07 20:11 | 43.59640 | 0.79491 | 32977 ft | 401 kts | 193° |
| 2026-05-07 20:12 | 43.54169 | 0.78046 | 32981 ft | 400 kts | 193° |
| 2026-05-07 20:12 | 43.48708 | 0.76608 | 32981 ft | 399 kts | 193° |
| 2026-05-07 20:13 | 43.43241 | 0.75162 | 32971 ft | 401 kts | 193° |
| 2026-05-07 20:13 | 43.37765 | 0.73713 | 32954 ft | 401 kts | 193° |
| 2026-05-07 20:14 | 43.32269 | 0.72263 | 32956 ft | 402 kts | 193° |
| 2026-05-07 20:14 | 43.26768 | 0.70826 | 32960 ft | 402 kts | 193° |
| 2026-05-07 20:15 | 43.21267 | 0.69374 | 32960 ft | 402 kts | 193° |
| 2026-05-07 20:15 | 43.15770 | 0.67924 | 32974 ft | 402 kts | 193° |
| 2026-05-07 20:16 | 43.10272 | 0.66484 | 32985 ft | 402 kts | 193° |
| 2026-05-07 20:16 | 43.04766 | 0.65045 | 32989 ft | 402 kts | 193° |
| 2026-05-07 20:17 | 42.99270 | 0.63613 | 32989 ft | 402 kts | 192° |
| 2026-05-07 20:17 | 42.93763 | 0.62181 | 32992 ft | 402 kts | 192° |
| 2026-05-07 20:18 | 42.88266 | 0.60758 | 32992 ft | 402 kts | 192° |
| 2026-05-07 20:18 | 42.82769 | 0.59327 | 33004 ft | 402 kts | 192° |
| 2026-05-07 20:19 | 42.77271 | 0.57903 | 33018 ft | 402 kts | 192° |
| 2026-05-07 20:19 | 42.71765 | 0.56490 | 33017 ft | 403 kts | 192° |
| 2026-05-07 20:20 | 42.66505 | 0.54056 | 33021 ft | 400 kts | 206° |
| 2026-05-07 20:20 | 42.61481 | 0.50812 | 33020 ft | 400 kts | 206° |
| 2026-05-07 20:21 | 42.56441 | 0.47597 | 33015 ft | 400 kts | 206° |
| 2026-05-07 20:21 | 42.51398 | 0.44388 | 33019 ft | 400 kts | 206° |
| 2026-05-07 20:22 | 42.46358 | 0.41177 | 33024 ft | 400 kts | 206° |
| 2026-05-07 20:22 | 42.41322 | 0.37967 | 33034 ft | 400 kts | 206° |
| 2026-05-07 20:23 | 42.36273 | 0.34764 | 32993 ft | 402 kts | 206° |
| 2026-05-07 20:23 | 42.31206 | 0.31539 | 32992 ft | 404 kts | 206° |
| 2026-05-07 20:24 | 42.26116 | 0.28310 | 32988 ft | 405 kts | 207° |
| 2026-05-07 20:24 | 42.21011 | 0.25091 | 32994 ft | 406 kts | 206° |
| 2026-05-07 20:25 | 42.15894 | 0.21874 | 32977 ft | 407 kts | 206° |
| 2026-05-07 20:25 | 42.10761 | 0.18640 | 32988 ft | 408 kts | 206° |
| 2026-05-07 20:26 | 42.05370 | 0.16264 | 32992 ft | 412 kts | 190° |
| 2026-05-07 20:26 | 41.99610 | 0.16292 | 32993 ft | 416 kts | 179° |
| 2026-05-07 20:27 | 41.93826 | 0.16798 | 32977 ft | 417 kts | 179° |
| 2026-05-07 20:27 | 41.88026 | 0.17291 | 32981 ft | 418 kts | 179° |
| 2026-05-07 20:28 | 41.82208 | 0.17799 | 32983 ft | 419 kts | 179° |
| 2026-05-07 20:28 | 41.76381 | 0.18304 | 32971 ft | 419 kts | 179° |
| 2026-05-07 20:29 | 41.70548 | 0.18807 | 32983 ft | 421 kts | 179° |
| 2026-05-07 20:29 | 41.64702 | 0.19312 | 32975 ft | 422 kts | 179° |
| 2026-05-07 20:30 | 41.58840 | 0.19810 | 32978 ft | 422 kts | 179° |
| 2026-05-07 20:30 | 41.52976 | 0.20302 | 32972 ft | 423 kts | 180° |
| 2026-05-07 20:31 | 41.47097 | 0.20805 | 32970 ft | 424 kts | 180° |
| 2026-05-07 20:31 | 41.41210 | 0.21309 | 32973 ft | 424 kts | 180° |
| 2026-05-07 20:32 | 41.35313 | 0.21713 | 32978 ft | 422 kts | 185° |
| 2026-05-07 20:32 | 41.29542 | 0.20603 | 32959 ft | 420 kts | 194° |
| 2026-05-07 20:33 | 41.23840 | 0.19204 | 32588 ft | 411 kts | 194° |
| 2026-05-07 20:33 | 41.21044 | 0.18523 | 32322 ft | 406 kts | 194° |
| 2026-05-07 20:33 | 41.18279 | 0.17847 | 32060 ft | 402 kts | 194° |
| 2026-05-07 20:33 | 41.15537 | 0.17176 | 31803 ft | 399 kts | 194° |
| 2026-05-07 20:34 | 41.12826 | 0.16463 | 31538 ft | 394 kts | 198° |
| 2026-05-07 20:34 | 41.10209 | 0.15433 | 31288 ft | 392 kts | 201° |
| 2026-05-07 20:34 | 41.07612 | 0.14375 | 31027 ft | 389 kts | 200° |
| 2026-05-07 20:34 | 41.05033 | 0.13326 | 30787 ft | 388 kts | 200° |
| 2026-05-07 20:35 | 41.02461 | 0.12283 | 30544 ft | 385 kts | 200° |
| 2026-05-07 20:35 | 40.99909 | 0.11252 | 30308 ft | 382 kts | 200° |
| 2026-05-07 20:35 | 40.97378 | 0.10233 | 30064 ft | 379 kts | 199° |
| 2026-05-07 20:35 | 40.94865 | 0.09219 | 29788 ft | 376 kts | 199° |
| 2026-05-07 20:36 | 40.92359 | 0.08218 | 29488 ft | 375 kts | 199° |
| 2026-05-07 20:36 | 40.89867 | 0.07222 | 29214 ft | 371 kts | 200° |
| 2026-05-07 20:36 | 40.87408 | 0.06240 | 28877 ft | 368 kts | 200° |
| 2026-05-07 20:36 | 40.84969 | 0.05263 | 28497 ft | 365 kts | 200° |
| 2026-05-07 20:37 | 40.82546 | 0.04288 | 28113 ft | 363 kts | 200° |
| 2026-05-07 20:37 | 40.80132 | 0.03317 | 27734 ft | 361 kts | 200° |
| 2026-05-07 20:37 | 40.77734 | 0.02352 | 27358 ft | 360 kts | 200° |
| 2026-05-07 20:37 | 40.75347 | 0.01395 | 26981 ft | 357 kts | 199° |
| 2026-05-07 20:38 | 40.72976 | 0.00449 | 26612 ft | 355 kts | 199° |
| 2026-05-07 20:38 | 40.70620 | -0.00489 | 26232 ft | 353 kts | 199° |
| 2026-05-07 20:38 | 40.68275 | -0.01423 | 25854 ft | 351 kts | 200° |
| 2026-05-07 20:38 | 40.65946 | -0.02350 | 25476 ft | 349 kts | 200° |
| 2026-05-07 20:39 | 40.63629 | -0.03274 | 25092 ft | 347 kts | 199° |
| 2026-05-07 20:39 | 40.61322 | -0.04192 | 24696 ft | 345 kts | 199° |
| 2026-05-07 20:39 | 40.59027 | -0.05105 | 24301 ft | 344 kts | 199° |
| 2026-05-07 20:39 | 40.56745 | -0.06011 | 23906 ft | 342 kts | 198° |
| 2026-05-07 20:40 | 40.54477 | -0.06913 | 23495 ft | 340 kts | 198° |
| 2026-05-07 20:40 | 40.52222 | -0.07813 | 23061 ft | 337 kts | 198° |
| 2026-05-07 20:40 | 40.49988 | -0.08702 | 22656 ft | 334 kts | 198° |
| 2026-05-07 20:40 | 40.47774 | -0.09581 | 22261 ft | 331 kts | 198° |
| 2026-05-07 20:41 | 40.45582 | -0.10446 | 21867 ft | 328 kts | 198° |
| 2026-05-07 20:41 | 40.43401 | -0.11304 | 21479 ft | 326 kts | 198° |
| 2026-05-07 20:41 | 40.41233 | -0.12158 | 21085 ft | 324 kts | 198° |
| 2026-05-07 20:41 | 40.39077 | -0.13012 | 20701 ft | 323 kts | 198° |
| 2026-05-07 20:42 | 40.36937 | -0.13861 | 20306 ft | 321 kts | 198° |
| 2026-05-07 20:42 | 40.34800 | -0.14707 | 19922 ft | 320 kts | 198° |
| 2026-05-07 20:42 | 40.32676 | -0.15545 | 19536 ft | 319 kts | 198° |
| 2026-05-07 20:42 | 40.30553 | -0.16379 | 19149 ft | 318 kts | 198° |
| 2026-05-07 20:43 | 40.28442 | -0.17208 | 18769 ft | 317 kts | 198° |
| 2026-05-07 20:43 | 40.26321 | -0.18026 | 18387 ft | 317 kts | 195° |
| 2026-05-07 20:43 | 40.24877 | -0.18349 | 18111 ft | 318 kts | 186° |
| 2026-05-07 20:43 | 40.22663 | -0.18465 | 17710 ft | 318 kts | 184° |
| 2026-05-07 20:44 | 40.20461 | -0.18552 | 17326 ft | 316 kts | 184° |
| 2026-05-07 20:44 | 40.18264 | -0.18643 | 16948 ft | 315 kts | 184° |
| 2026-05-07 20:44 | 40.16082 | -0.18736 | 16574 ft | 313 kts | 184° |
| 2026-05-07 20:44 | 40.13903 | -0.18830 | 16198 ft | 313 kts | 184° |
| 2026-05-07 20:45 | 40.11731 | -0.18922 | 15824 ft | 312 kts | 183° |
| 2026-05-07 20:45 | 40.09560 | -0.19016 | 15452 ft | 312 kts | 183° |
| 2026-05-07 20:45 | 40.07391 | -0.19110 | 15090 ft | 312 kts | 183° |
| 2026-05-07 20:45 | 40.05221 | -0.19203 | 14709 ft | 312 kts | 183° |
| 2026-05-07 20:46 | 40.03049 | -0.19289 | 14340 ft | 313 kts | 183° |
| 2026-05-07 20:46 | 40.00875 | -0.19374 | 13960 ft | 313 kts | 183° |
| 2026-05-07 20:46 | 39.98684 | -0.19463 | 13554 ft | 314 kts | 182° |
| 2026-05-07 20:46 | 39.96498 | -0.19553 | 13168 ft | 315 kts | 182° |
| 2026-05-07 20:47 | 39.94314 | -0.19647 | 12789 ft | 313 kts | 182° |
| 2026-05-07 20:47 | 39.92139 | -0.19744 | 12406 ft | 313 kts | 183° |
| 2026-05-07 20:47 | 39.89963 | -0.19838 | 12025 ft | 312 kts | 182° |
| 2026-05-07 20:47 | 39.87804 | -0.19929 | 11655 ft | 311 kts | 182° |
| 2026-05-07 20:48 | 39.85644 | -0.20020 | 11279 ft | 310 kts | 182° |
| 2026-05-07 20:48 | 39.83488 | -0.20110 | 10907 ft | 310 kts | 181° |
| 2026-05-07 20:48 | 39.81549 | -0.20193 | 10565 ft | 310 kts | 181° |
| 2026-05-07 20:48 | 39.79416 | -0.20284 | 10412 ft | 301 kts | 181° |
| 2026-05-07 20:49 | 39.77335 | -0.20372 | 10102 ft | 299 kts | 181° |
| 2026-05-07 20:49 | 39.75255 | -0.20455 | 9777 ft | 298 kts | 181° |
| 2026-05-07 20:49 | 39.73189 | -0.20537 | 9423 ft | 296 kts | 181° |
| 2026-05-07 20:49 | 39.71145 | -0.20620 | 8859 ft | 292 kts | 181° |
| 2026-05-07 20:50 | 39.69115 | -0.20707 | 8508 ft | 290 kts | 181° |
| 2026-05-07 20:50 | 39.67089 | -0.20742 | 8134 ft | 291 kts | 175° |
| 2026-05-07 20:50 | 39.65097 | -0.20528 | 7885 ft | 286 kts | 174° |
| 2026-05-07 20:50 | 39.63113 | -0.20324 | 7532 ft | 285 kts | 174° |
| 2026-05-07 20:51 | 39.61140 | -0.20122 | 7184 ft | 284 kts | 174° |
| 2026-05-07 20:51 | 39.59177 | -0.19924 | 6875 ft | 282 kts | 174° |
| 2026-05-07 20:51 | 39.57228 | -0.19726 | 6554 ft | 280 kts | 174° |
| 2026-05-07 20:51 | 39.55287 | -0.19528 | 6219 ft | 278 kts | 174° |
| 2026-05-07 20:52 | 39.53372 | -0.19333 | 5639 ft | 275 kts | 174° |
| 2026-05-07 20:52 | 39.51488 | -0.19145 | 5231 ft | 268 kts | 174° |
| 2026-05-07 20:52 | 39.49629 | -0.18960 | 4884 ft | 268 kts | 174° |
| 2026-05-07 20:52 | 39.47770 | -0.18774 | 4537 ft | 268 kts | 174° |
| 2026-05-07 20:53 | 39.45911 | -0.18586 | 4191 ft | 268 kts | 174° |
| 2026-05-07 20:53 | 39.44074 | -0.18402 | 4013 ft | 261 kts | 174° |
| 2026-05-07 20:53 | 39.42292 | -0.18226 | 3883 ft | 252 kts | 174° |
| 2026-05-07 20:53 | 39.40577 | -0.18056 | 3754 ft | 243 kts | 174° |
| 2026-05-07 20:54 | 39.38940 | -0.18274 | 3583 ft | 236 kts | 204° |
| 2026-05-07 20:54 | 39.37732 | -0.19668 | 3125 ft | 241 kts | 243° |
| 2026-05-07 20:54 | 39.37488 | -0.21772 | 2761 ft | 239 kts | 284° |
| 2026-05-07 20:54 | 39.38205 | -0.23637 | 2666 ft | 227 kts | 308° |
| 2026-05-07 20:55 | 39.39193 | -0.25160 | 2588 ft | 215 kts | 313° |
| 2026-05-07 20:55 | 39.40182 | -0.26544 | 2518 ft | 204 kts | 312° |
| 2026-05-07 20:55 | 39.41000 | -0.27980 | 2472 ft | 194 kts | 305° |
| 2026-05-07 20:55 | 39.41710 | -0.29442 | 2428 ft | 190 kts | 300° |
| 2026-05-07 20:56 | 39.42332 | -0.30941 | 2365 ft | 188 kts | 298° |
| 2026-05-07 20:56 | 39.42904 | -0.32404 | 2290 ft | 178 kts | 298° |
| 2026-05-07 20:56 | 39.43448 | -0.33816 | 2216 ft | 173 kts | 298° |
| 2026-05-07 20:56 | 39.43974 | -0.35187 | 2129 ft | 168 kts | 298° |
| 2026-05-07 20:57 | 39.44489 | -0.36534 | 1954 ft | 166 kts | 298° |
| 2026-05-07 20:57 | 39.45000 | -0.37865 | 1750 ft | 165 kts | 297° |
| 2026-05-07 20:57 | 39.45504 | -0.39185 | 1528 ft | 161 kts | 297° |
| 2026-05-07 20:57 | 39.45984 | -0.40440 | 1319 ft | 151 kts | 298° |
| 2026-05-07 20:58 | 39.46441 | -0.41635 | 1112 ft | 146 kts | 297° |
| 2026-05-07 20:58 | 39.46887 | -0.42804 | 935 ft | 144 kts | 297° |
| 2026-05-07 20:58 | 39.47328 | -0.43957 | 747 ft | 143 kts | 296° |
| 2026-05-07 20:58 | 39.47764 | -0.45101 | 550 ft | 141 kts | 297° |
| 2026-05-07 20:59 | 39.48196 | -0.46235 | 364 ft | 140 kts | 297° |
| 2026-05-07 20:59 | 39.48628 | -0.47365 | 203 ft | 136 kts | 297° |
| 2026-05-07 20:59 | 39.48987 | -0.48307 | 206 ft | 93 kts | 296° |
| 2026-05-07 20:59 | 39.49199 | -0.48864 | 223 ft | 48 kts | 296° |
| 2026-05-07 21:00 | 39.49316 | -0.49131 | 225 ft | 25 kts | 310° |
| 2026-05-07 21:00 | 39.49450 | -0.49277 | 225 ft | 23 kts | 327° |
| 2026-05-07 21:00 | 39.49542 | -0.49290 | 226 ft | 14 kts | 54° |
| 2026-05-07 21:00 | 39.49514 | -0.49161 | 223 ft | 18 kts | 116° |
| 2026-05-07 21:01 | 39.49452 | -0.48999 | 221 ft | 22 kts | 116° |
| 2026-05-07 21:01 | 39.49382 | -0.48813 | 220 ft | 25 kts | 115° |
| 2026-05-07 21:01 | 39.49301 | -0.48598 | 222 ft | 28 kts | 118° |
| 2026-05-07 21:01 | 39.49229 | -0.48414 | 216 ft | 24 kts | 116° |
| 2026-05-07 21:02 | 39.49148 | -0.48202 | 207 ft | 27 kts | 116° |
| 2026-05-07 21:02 | 39.49068 | -0.47992 | 208 ft | 22 kts | 116° |
| 2026-05-07 21:02 | 39.49027 | -0.47855 | 202 ft | 14 kts | 89° |
| 2026-05-07 21:02 | 39.49050 | -0.47714 | 206 ft | 18 kts | 77° |
| 2026-05-07 21:03 | 39.49038 | -0.47580 | 203 ft | 17 kts | 116° |
| 2026-05-07 21:03 | 39.48983 | -0.47436 | 195 ft | 18 kts | 116° |
| 2026-05-07 21:03 | 39.48941 | -0.47326 | 200 ft | 11 kts | 116° |
| 2026-05-07 21:03 | 39.48958 | -0.47254 | 189 ft | 8 kts | 33° |
| 2026-05-07 21:04 | 39.49003 | -0.47232 | 191 ft | 6 kts | 19° |
| 2026-05-07 21:04 | 39.49015 | -0.47227 | 189 ft | 0 kts | 19° |